Gujrat Weather



Gujrat's Current Weather

Temprature 41o scattered clouds

scattered clouds

Rain: 0 %

Min Temprature41o
Max Temprature41o
Humidity14
Wind Speed5.1 m/h
Sun Rise04:57:46
Sun Set19:14:57
Current Time: 26-Jun-2019 15:12:30
Lat/Lon: 32.57, 74.07




Gujrat's Geo Location



Gujrat's Weather Forecast

Time Overall Temp Min Temp Max Temp Humidity Wind Speed Rain
26-Jun-2019 (Wed)
17:00:00 clear sky 41.440 41.440 43.250 11 4.16 m/h 0 %
20:00:00 clear sky 37.890 37.890 39.247 16 2.37 m/h 0 %
23:00:00 clear sky 35.140 35.140 36.040 15 1.24 m/h 0 %
27-Jun-2019 (Thu)
02:00:00 clear sky 33.230 33.230 33.679 19 1.36 m/h 0 %
05:00:00 clear sky 31.465 31.465 31.465 27 2.03 m/h 0 %
08:00:00 clear sky 37.650 37.650 37.650 17 3.24 m/h 0 %
11:00:00 few clouds 42.774 42.774 42.774 11 2.13 m/h 0 %
14:00:00 overcast clouds 44.650 44.650 44.650 8 3.55 m/h 0 %
17:00:00 broken clouds 44.880 44.880 44.880 8 4.1 m/h 0 %
20:00:00 scattered clouds 40.094 40.094 40.094 12 2.6 m/h 0 %
23:00:00 few clouds 36.735 36.735 36.735 22 4.22 m/h 0 %
28-Jun-2019 (Fri)
02:00:00 clear sky 34.628 34.628 34.628 27 3.45 m/h 0 %
05:00:00 clear sky 32.328 32.328 32.328 31 2.19 m/h 0 %
08:00:00 clear sky 37.539 37.539 37.539 22 0.6 m/h 0 %
11:00:00 few clouds 43.225 43.225 43.225 12 2.55 m/h 0 %
14:00:00 scattered clouds 46.131 46.131 46.131 8 3.58 m/h 0 %
17:00:00 few clouds 45.350 45.350 45.350 10 5.6 m/h 0 %
20:00:00 scattered clouds 40.650 40.650 40.650 13 4.18 m/h 0 %
23:00:00 scattered clouds 37.072 37.072 37.072 18 2.75 m/h 0 %
29-Jun-2019 (Sat)
02:00:00 clear sky 35.772 35.772 35.772 24 4.19 m/h 0 %
05:00:00 clear sky 33.669 33.669 33.669 28 1.04 m/h 0 %
08:00:00 clear sky 38.657 38.657 38.657 21 1.34 m/h 0 %
11:00:00 clear sky 43.950 43.950 43.950 15 2.48 m/h 0 %
14:00:00 clear sky 47.050 47.050 47.050 10 3.82 m/h 0 %
17:00:00 clear sky 46.391 46.391 46.391 9 5.58 m/h 0 %
20:00:00 broken clouds 42.050 42.050 42.050 13 5.07 m/h 0 %
23:00:00 broken clouds 41.050 41.050 41.050 13 2 m/h 0 %
30-Jun-2019 (Sun)
02:00:00 clear sky 36.386 36.386 36.386 21 2.57 m/h 0 %
05:00:00 clear sky 34.672 34.672 34.672 23 0.75 m/h 0 %
08:00:00 clear sky 40.772 40.772 40.772 17 3.23 m/h 0 %
11:00:00 clear sky 45.318 45.318 45.318 13 4.48 m/h 0 %
14:00:00 clear sky 47.909 47.909 47.909 10 5.42 m/h 0 %
17:00:00 clear sky 42.950 42.950 42.950 17 14.62 m/h 0 %
20:00:00 light rain 38.650 38.650 38.650 19 3.56 m/h 56 %
23:00:00 light rain 37.850 37.850 37.850 21 1.51 m/h 19 %
01-Jul-2019 (Mon)
02:00:00 few clouds 36.050 36.050 36.050 22 2.13 m/h 0 %
05:00:00 clear sky 34.135 34.135 34.135 25 3.21 m/h 0 %
08:00:00 clear sky 39.550 39.550 39.550 19 2.72 m/h 0 %
11:00:00 clear sky 43.850 43.850 43.850 16 3.67 m/h 0 %
14:00:00 clear sky 47.250 47.250 47.250 11 3.4 m/h 0 %

Famous Cities (60)